Millsboro, Delaware
Current Conditions -  °F | °C
As of 7:54 PM on Friday 21 Nov 2014 (Local Time) from KGED Reporting Station
Clear Clear  
Wind Chill: 29°   Ceiling: Unl
Heat Index: 29°   Visibility: 10mi
Dew Point: 11°   Wind: 0mph
Humidity: 47%   Direction: NA
Pressure: 30.55"   Gusts: NA
Location:  38.59°N, 75.29°W
Report Text: KGED 220054Z AUTO 00000KT 10SM CLR M02/M12 A3055 RMK AO2 SLP345 T10171117
Loading
Personal Weather Stations






























Interactive Weather Map New forecast layout! Learn more

10-Day Weather Forecast

Advertisements
Track Severe Weather on mobile